createdAt,value
2023-05-10T00:01:20.584Z,3.58
2023-05-10T00:03:48.624Z,3.33
2023-05-10T00:06:16.839Z,3.70
2023-05-10T00:08:44.830Z,3.80
2023-05-10T00:11:12.790Z,3.60
2023-05-10T00:13:40.700Z,4.22
2023-05-10T00:16:10.262Z,2.72
2023-05-10T00:18:38.129Z,4.07
2023-05-10T00:21:06.807Z,3.80
2023-05-10T00:23:34.720Z,3.83
2023-05-10T00:26:03.067Z,5.50
2023-05-10T00:28:30.937Z,4.13
2023-05-10T00:30:58.776Z,3.47
2023-05-10T00:33:28.118Z,3.85
2023-05-10T00:35:56.046Z,3.65
2023-05-10T00:38:23.975Z,3.53
2023-05-10T00:40:51.954Z,3.70
2023-05-10T00:43:19.886Z,3.90
2023-05-10T00:45:48.278Z,3.90
2023-05-10T00:48:16.373Z,3.90
2023-05-10T00:50:45.729Z,3.78
2023-05-10T00:53:14.206Z,3.58
2023-05-10T00:55:42.261Z,3.72
2023-05-10T00:58:10.165Z,4.53
2023-05-10T01:00:39.628Z,3.95
2023-05-10T01:03:07.554Z,4.13
2023-05-10T01:05:35.630Z,4.15
2023-05-10T01:08:05.310Z,4.22
2023-05-10T01:10:33.795Z,4.25
2023-05-10T01:13:01.844Z,4.50
2023-05-10T01:15:30.079Z,4.43
2023-05-10T01:17:58.638Z,4.43
2023-05-10T01:20:27.024Z,4.68
2023-05-10T01:23:24.633Z,4.78
2023-05-10T01:26:16.690Z,4.47
2023-05-10T01:29:03.969Z,4.30
2023-05-10T01:31:42.258Z,4.55
2023-05-10T01:34:15.175Z,4.80
2023-05-10T01:36:47.976Z,4.50
2023-05-10T01:39:23.428Z,5.07
2023-05-10T01:41:56.699Z,5.32
2023-05-10T01:44:33.530Z,4.65
2023-05-10T01:47:08.257Z,5.22
2023-05-10T01:49:44.017Z,4.45
2023-05-10T01:52:16.883Z,6.10
2023-05-10T01:54:51.302Z,5.85
2023-05-10T01:57:21.538Z,5.10
2023-05-10T01:59:52.924Z,5.25
2023-05-10T02:02:23.237Z,5.05
2023-05-10T02:07:22.306Z,5.20
2023-05-10T02:09:50.380Z,5.60
2023-05-10T02:12:20.228Z,5.40
2023-05-10T02:14:49.895Z,5.50
2023-05-10T02:17:18.875Z,5.57
2023-05-10T02:19:49.326Z,5.55
2023-05-10T02:22:19.273Z,6.07
2023-05-10T02:24:48.564Z,5.60
2023-05-10T02:27:17.920Z,5.53
2023-05-10T02:29:46.915Z,5.20
2023-05-10T02:32:16.476Z,5.80
2023-05-10T02:34:46.657Z,5.55
2023-05-10T02:37:16.699Z,5.25
2023-05-10T02:39:48.035Z,5.75
2023-05-10T02:42:19.786Z,5.15
2023-05-10T02:44:50.723Z,5.40
2023-05-10T02:47:18.948Z,5.60
2023-05-10T02:49:47.459Z,5.55
2023-05-10T02:52:18.283Z,6.15
2023-05-10T02:54:51.210Z,5.50
2023-05-10T02:57:23.014Z,5.97
2023-05-10T02:59:51.090Z,5.05
2023-05-10T03:02:19.089Z,5.20
2023-05-10T03:04:50.201Z,6.22
2023-05-10T03:07:20.309Z,6.13
2023-05-10T03:09:49.900Z,6.18
2023-05-10T03:12:29.134Z,5.65
2023-05-10T03:15:05.931Z,5.40
2023-05-10T03:17:42.222Z,6.10
2023-05-10T03:20:13.364Z,5.90
2023-05-10T03:22:46.739Z,5.25
2023-05-10T03:25:18.676Z,5.40
2023-05-10T03:27:48.220Z,5.65
2023-05-10T03:30:16.930Z,5.13
2023-05-10T03:32:45.049Z,5.30
2023-05-10T03:35:15.362Z,5.07
2023-05-10T03:40:11.292Z,5.10
2023-05-10T03:42:40.496Z,5.50
2023-05-10T03:45:09.775Z,4.93
2023-05-10T03:47:37.697Z,6.38
2023-05-10T03:50:06.414Z,5.30
2023-05-10T03:52:34.290Z,5.78
2023-05-10T03:55:03.978Z,5.68
2023-05-10T03:57:31.878Z,4.90
2023-05-10T04:00:01.214Z,5.50
2023-05-10T04:02:29.175Z,5.68
2023-05-10T04:04:57.073Z,5.53
2023-05-10T04:07:25.086Z,5.45
2023-05-10T04:09:53.325Z,5.78
2023-05-10T04:12:21.261Z,5.60
2023-05-10T04:14:49.189Z,4.88
2023-05-10T04:17:18.528Z,4.45
2023-05-10T04:19:46.352Z,5.03
2023-05-10T04:22:14.156Z,5.45
2023-05-10T04:24:42.067Z,5.32
2023-05-10T04:27:09.937Z,4.65
2023-05-10T04:29:37.944Z,4.70
2023-05-10T04:32:06.469Z,5.15
2023-05-10T04:34:36.173Z,4.93
2023-05-10T04:37:04.119Z,4.30
2023-05-10T04:39:32.071Z,5.05
2023-05-10T04:41:59.972Z,4.75
2023-05-10T04:44:27.894Z,4.68
2023-05-10T04:46:55.958Z,4.68
2023-05-10T04:49:23.902Z,4.97
2023-05-10T04:51:53.250Z,4.15
2023-05-10T04:54:21.218Z,4.53
2023-05-10T04:56:49.315Z,5.07
2023-05-10T04:59:17.325Z,5.43
2023-05-10T05:01:45.217Z,4.22
2023-05-10T05:04:13.216Z,4.38
2023-05-10T05:06:41.173Z,4.10
2023-05-10T05:09:11.154Z,4.53
2023-05-10T05:11:39.267Z,4.05
2023-05-10T05:14:07.217Z,4.32
2023-05-10T05:16:35.320Z,4.47
2023-05-10T05:19:03.422Z,4.57
2023-05-10T05:21:33.129Z,3.97
2023-05-10T05:24:01.125Z,4.38
2023-05-10T05:26:30.334Z,4.35
2023-05-10T05:28:58.233Z,4.28
2023-05-10T05:31:26.089Z,3.85
2023-05-10T05:33:53.905Z,3.60
2023-05-10T05:36:21.832Z,4.60
2023-05-10T05:38:49.648Z,3.95
2023-05-10T05:41:17.531Z,4.55
2023-05-10T05:43:46.735Z,3.55
2023-05-10T05:46:14.705Z,4.32
2023-05-10T05:48:42.579Z,4.75
2023-05-10T05:51:10.505Z,3.88
2023-05-10T05:53:38.456Z,4.10
2023-05-10T05:56:06.868Z,4.03
2023-05-10T05:58:34.720Z,3.60
2023-05-10T06:01:04.033Z,6.93
2023-05-10T06:03:31.990Z,3.50
2023-05-10T06:06:00.075Z,4.05
2023-05-10T06:08:27.955Z,3.65
2023-05-10T06:10:55.922Z,3.60
2023-05-10T06:13:23.858Z,3.50
2023-05-10T06:15:52.055Z,3.75
2023-05-10T06:18:21.373Z,3.50
2023-05-10T06:20:49.279Z,3.63
2023-05-10T06:23:17.256Z,3.30
2023-05-10T06:25:45.089Z,3.85
2023-05-10T06:28:12.941Z,3.25
2023-05-10T06:30:40.802Z,3.95
2023-05-10T06:33:08.722Z,3.30
2023-05-10T06:35:38.166Z,3.20
2023-05-10T06:38:06.086Z,3.75
2023-05-10T06:40:33.917Z,3.47
2023-05-10T06:43:01.806Z,3.92
2023-05-10T06:45:29.729Z,3.55
2023-05-10T06:47:57.654Z,3.50
2023-05-10T06:50:25.598Z,3.08
2023-05-10T06:52:55.218Z,3.30
2023-05-10T06:55:23.200Z,3.57
2023-05-10T06:57:51.591Z,3.50
2023-05-10T07:00:21.238Z,3.20
2023-05-10T07:02:49.582Z,3.33
2023-05-10T07:05:17.913Z,3.60
2023-05-10T07:07:45.969Z,3.05
2023-05-10T07:10:15.213Z,3.30
2023-05-10T07:12:43.357Z,3.10
2023-05-10T07:15:11.627Z,2.97
2023-05-10T07:17:39.635Z,3.10
2023-05-10T07:20:09.813Z,3.78
2023-05-10T07:22:37.769Z,3.37
2023-05-10T07:25:06.356Z,3.22
2023-05-10T07:27:35.628Z,3.25
2023-05-10T07:30:03.604Z,3.28
2023-05-10T07:32:31.715Z,3.10
2023-05-10T07:34:59.712Z,3.13
2023-05-10T07:37:30.001Z,2.83
2023-05-10T07:39:57.936Z,2.97
2023-05-10T07:42:25.989Z,3.53
2023-05-10T07:44:55.257Z,3.13
2023-05-10T07:47:23.208Z,3.22
2023-05-10T07:49:51.126Z,3.10
2023-05-10T07:52:19.931Z,4.25
2023-05-10T07:54:49.863Z,3.40
2023-05-10T07:57:18.625Z,3.03
2023-05-10T07:59:46.793Z,3.42
2023-05-10T08:02:16.214Z,2.70
2023-05-10T08:04:46.038Z,2.53
2023-05-10T08:07:14.000Z,3.10
2023-05-10T08:09:41.959Z,2.67
2023-05-10T08:12:09.843Z,2.95
2023-05-10T08:14:38.041Z,3.42
2023-05-10T08:17:06.267Z,3.40
2023-05-10T08:19:35.933Z,3.88
2023-05-10T08:22:03.799Z,3.28
2023-05-10T08:24:31.901Z,3.00
2023-05-10T08:26:59.869Z,3.17
2023-05-10T08:29:30.431Z,3.35
2023-05-10T08:31:58.618Z,3.22
2023-05-10T08:34:26.895Z,3.20
2023-05-10T08:36:56.319Z,2.80
2023-05-10T08:39:30.504Z,3.10
2023-05-10T08:42:04.605Z,3.13
2023-05-10T08:44:34.254Z,3.40
2023-05-10T08:47:06.508Z,3.23
2023-05-10T08:49:35.153Z,3.17
2023-05-10T08:52:06.656Z,3.40
2023-05-10T08:54:35.160Z,3.40
2023-05-10T08:57:03.235Z,3.35
2023-05-10T08:59:31.373Z,3.60
2023-05-10T09:02:00.768Z,3.00
2023-05-10T09:04:29.606Z,3.15
2023-05-10T09:06:57.812Z,3.42
2023-05-10T09:09:28.057Z,2.83
2023-05-10T09:11:56.543Z,3.42
2023-05-10T09:14:26.799Z,3.03
2023-05-10T09:16:56.239Z,3.22
2023-05-10T09:19:24.283Z,2.83
2023-05-10T09:21:52.142Z,2.88
2023-05-10T09:24:20.018Z,3.30
2023-05-10T09:26:52.475Z,3.10
2023-05-10T09:29:20.401Z,3.72
2023-05-10T09:31:52.219Z,3.33
2023-05-10T09:34:30.952Z,3.25
2023-05-10T09:37:01.981Z,2.92
2023-05-10T09:39:34.133Z,3.28
2023-05-10T09:42:05.761Z,2.88
2023-05-10T09:44:33.811Z,3.08
2023-05-10T09:47:01.996Z,3.13
2023-05-10T09:49:30.155Z,3.65
2023-05-10T09:52:05.531Z,2.60
2023-05-10T09:54:34.309Z,3.00
2023-05-10T09:57:04.349Z,2.90
2023-05-10T09:59:32.378Z,3.10
2023-05-10T10:02:02.039Z,3.47
2023-05-10T10:04:30.513Z,3.08
2023-05-10T10:07:02.791Z,3.25
2023-05-10T10:09:31.432Z,4.00
2023-05-10T10:11:59.916Z,2.80
2023-05-10T10:14:29.285Z,3.15
2023-05-10T10:17:07.360Z,3.50
2023-05-10T10:19:37.880Z,3.40
2023-05-10T10:22:06.460Z,3.00
2023-05-10T10:24:34.417Z,2.78
2023-05-10T10:27:11.135Z,4.10
2023-05-10T10:29:46.828Z,2.88
2023-05-10T10:32:28.138Z,3.33
2023-05-10T10:34:57.156Z,3.33
2023-05-10T10:37:25.122Z,3.42
2023-05-10T10:39:53.059Z,3.28
2023-05-10T10:42:48.221Z,3.22
2023-05-10T10:45:18.036Z,3.20
2023-05-10T10:47:47.134Z,2.97
2023-05-10T10:50:17.075Z,3.17
2023-05-10T10:52:45.863Z,2.95
2023-05-10T10:55:16.215Z,3.53
2023-05-10T10:57:52.755Z,3.17
2023-05-10T11:00:27.542Z,3.40
2023-05-10T11:02:57.944Z,3.47
2023-05-10T11:05:47.310Z,2.95
2023-05-10T11:08:18.263Z,3.10
2023-05-10T11:11:08.969Z,3.03
2023-05-10T11:13:41.197Z,2.88
2023-05-10T11:16:18.658Z,2.88
2023-05-10T11:18:59.830Z,3.20
2023-05-10T11:21:28.149Z,3.22
2023-05-10T11:23:58.313Z,2.65
2023-05-10T11:26:27.273Z,2.92
2023-05-10T11:28:57.352Z,3.10
2023-05-10T11:31:28.103Z,2.67
2023-05-10T11:33:58.005Z,3.55
2023-05-10T11:36:28.322Z,3.20
2023-05-10T11:38:56.962Z,3.65
2023-05-10T11:41:26.074Z,2.42
2023-05-10T11:43:56.044Z,3.65
2023-05-10T11:46:24.958Z,2.78
2023-05-10T11:48:56.152Z,3.50
2023-05-10T11:51:25.398Z,3.20
2023-05-10T11:53:55.798Z,2.60
2023-05-10T11:56:24.535Z,2.55
2023-05-10T11:58:55.523Z,2.97
2023-05-10T12:01:24.163Z,3.15
2023-05-10T12:03:53.004Z,3.03
2023-05-10T12:06:22.931Z,3.72
2023-05-10T12:08:53.706Z,2.75
2023-05-10T12:11:22.752Z,3.05
2023-05-10T12:13:50.944Z,3.13
2023-05-10T12:16:20.027Z,3.00
2023-05-10T12:18:50.675Z,3.70
2023-05-10T12:21:19.469Z,3.70
2023-05-10T12:23:50.814Z,3.42
2023-05-10T12:26:18.801Z,3.78
2023-05-10T12:28:46.789Z,2.67
2023-05-10T12:31:14.697Z,3.20
2023-05-10T12:33:44.793Z,3.05
2023-05-10T12:36:13.470Z,3.33
2023-05-10T12:38:44.184Z,2.80
2023-05-10T12:41:14.799Z,3.63
2023-05-10T12:43:43.460Z,3.47
2023-05-10T12:46:12.840Z,3.35
2023-05-10T12:48:42.016Z,3.15
2023-05-10T12:51:12.776Z,2.95
2023-05-10T12:53:44.234Z,3.05
2023-05-10T12:56:14.573Z,2.88
2023-05-10T12:58:42.516Z,2.60
2023-05-10T13:01:11.193Z,3.72
2023-05-10T13:03:39.177Z,2.63
2023-05-10T13:06:08.094Z,2.90
2023-05-10T13:08:35.989Z,3.50
2023-05-10T13:11:05.513Z,2.53
2023-05-10T13:13:35.180Z,2.70
2023-05-10T13:16:03.103Z,2.55
2023-05-10T13:18:31.008Z,2.78
2023-05-10T13:20:58.880Z,2.88
2023-05-10T13:23:26.682Z,2.55
2023-05-10T13:25:54.486Z,2.28
2023-05-10T13:28:22.333Z,2.88
2023-05-10T13:30:51.693Z,2.95
2023-05-10T13:33:19.574Z,2.70
2023-05-10T13:35:47.510Z,3.10
2023-05-10T13:38:15.465Z,3.45
2023-05-10T13:40:43.442Z,2.60
2023-05-10T13:43:11.366Z,3.45
2023-05-10T13:45:39.898Z,2.90
2023-05-10T13:48:09.279Z,2.53
2023-05-10T13:50:37.177Z,2.53
2023-05-10T13:53:05.022Z,3.00
2023-05-10T13:55:32.944Z,3.13
2023-05-10T13:58:01.191Z,2.47
2023-05-10T14:00:29.168Z,3.03
2023-05-10T14:02:57.229Z,2.83
2023-05-10T14:05:26.963Z,2.60
2023-05-10T14:07:55.141Z,2.45
2023-05-10T14:10:23.013Z,3.03
2023-05-10T14:12:52.307Z,2.70
2023-05-10T14:15:20.331Z,2.13
2023-05-10T14:17:48.312Z,3.50
2023-05-10T14:20:16.219Z,2.58
2023-05-10T14:22:45.573Z,2.45
2023-05-10T14:25:13.758Z,3.03
2023-05-10T14:27:41.586Z,2.67
2023-05-10T14:30:10.568Z,2.22
2023-05-10T14:32:38.816Z,2.78
2023-05-10T14:35:08.982Z,1.77
2023-05-10T14:37:38.719Z,3.85
2023-05-10T14:40:10.329Z,2.55
2023-05-10T14:42:38.184Z,2.72
2023-05-10T14:45:07.247Z,2.83
2023-05-10T14:47:35.218Z,3.15
2023-05-10T14:50:03.152Z,2.30
2023-05-10T14:52:33.604Z,2.50
2023-05-10T14:55:02.456Z,3.22
2023-05-10T14:57:31.741Z,2.40
2023-05-10T14:59:59.651Z,2.10
2023-05-10T15:02:28.065Z,2.30
2023-05-10T15:04:56.421Z,2.65
2023-05-10T15:07:24.829Z,3.22
2023-05-10T15:09:53.308Z,2.80
2023-05-10T15:12:21.306Z,2.50
2023-05-10T15:14:50.588Z,2.63
2023-05-10T15:17:18.660Z,2.55
2023-05-10T15:19:46.704Z,2.65
2023-05-10T15:22:14.664Z,2.40
2023-05-10T15:24:42.678Z,2.30
2023-05-10T15:27:10.538Z,2.33
2023-05-10T15:29:38.517Z,2.30
2023-05-10T15:32:07.853Z,2.55
2023-05-10T15:34:37.008Z,2.75
2023-05-10T15:37:05.018Z,2.90
2023-05-10T15:39:32.964Z,2.38
2023-05-10T15:42:02.306Z,2.95
2023-05-10T15:44:30.228Z,2.25
2023-05-10T15:46:58.268Z,2.35
2023-05-10T15:49:27.756Z,2.63
2023-05-10T15:51:55.793Z,2.38
2023-05-10T15:54:23.781Z,2.50
2023-05-10T15:56:51.704Z,2.80
2023-05-10T15:59:19.540Z,2.95
2023-05-10T16:01:47.584Z,3.38
2023-05-10T16:04:15.482Z,2.35
2023-05-10T16:06:45.027Z,2.53
2023-05-10T16:09:13.109Z,2.57
2023-05-10T16:11:41.239Z,2.80
2023-05-10T16:14:09.167Z,2.20
2023-05-10T16:16:37.171Z,2.47
2023-05-10T16:19:05.367Z,1.95
2023-05-10T16:21:33.500Z,2.65
2023-05-10T16:24:04.171Z,2.10
2023-05-10T16:26:32.033Z,2.60
2023-05-10T16:28:59.911Z,2.58
2023-05-10T16:31:27.837Z,2.50
2023-05-10T16:33:58.932Z,2.50
2023-05-10T16:36:27.208Z,2.15
2023-05-10T16:38:55.508Z,2.40
2023-05-10T16:41:24.752Z,2.58
2023-05-10T16:43:52.694Z,2.55
2023-05-10T16:46:20.688Z,2.22
2023-05-10T16:48:48.606Z,2.28
2023-05-10T16:51:16.526Z,2.30
2023-05-10T16:53:44.346Z,2.17
2023-05-10T16:56:12.310Z,2.65
2023-05-10T16:58:41.961Z,2.90
2023-05-10T17:01:09.968Z,2.40
2023-05-10T17:03:38.034Z,2.30
2023-05-10T17:06:06.910Z,2.83
2023-05-10T17:08:34.922Z,2.33
2023-05-10T17:11:03.546Z,2.40
2023-05-10T17:13:31.815Z,2.30
2023-05-10T17:16:03.625Z,1.92
2023-05-10T17:18:31.998Z,2.20
2023-05-10T17:20:59.960Z,2.08
2023-05-10T17:23:28.322Z,2.30
2023-05-10T17:25:56.215Z,2.20
2023-05-10T17:28:24.205Z,2.25
2023-05-10T17:30:57.654Z,3.10
2023-05-10T17:33:27.133Z,2.30
2023-05-10T17:35:54.955Z,2.47
2023-05-10T17:38:22.831Z,2.75
2023-05-10T17:40:50.658Z,2.67
2023-05-10T17:43:18.510Z,2.22
2023-05-10T17:45:49.058Z,2.63
2023-05-10T17:48:17.336Z,2.67
2023-05-10T17:50:46.942Z,2.30
2023-05-10T17:53:14.852Z,2.40
2023-05-10T17:55:43.732Z,2.35
2023-05-10T17:58:13.293Z,2.20
2023-05-10T18:00:41.494Z,2.80
2023-05-10T18:03:09.634Z,2.30
2023-05-10T18:05:38.349Z,2.72
2023-05-10T18:08:08.657Z,2.33
2023-05-10T18:10:40.656Z,2.05
2023-05-10T18:13:09.399Z,2.72
2023-05-10T18:15:37.540Z,2.42
2023-05-10T18:18:05.831Z,2.13
2023-05-10T18:20:33.863Z,2.55
2023-05-10T18:23:02.560Z,2.17
2023-05-10T18:25:32.029Z,2.13
2023-05-10T18:28:00.109Z,2.72
2023-05-10T18:30:28.274Z,2.30
2023-05-10T18:32:56.280Z,2.22
2023-05-10T18:35:24.415Z,2.10
2023-05-10T18:37:53.319Z,2.25
2023-05-10T18:40:21.432Z,2.35
2023-05-10T18:42:50.942Z,2.72
2023-05-10T18:45:19.592Z,2.17
2023-05-10T18:47:48.515Z,2.25
2023-05-10T18:50:17.828Z,2.25
2023-05-10T18:52:46.665Z,1.92
2023-05-10T18:55:15.145Z,2.40
2023-05-10T18:57:43.455Z,2.20
2023-05-10T19:00:14.617Z,2.42
2023-05-10T19:02:43.106Z,2.10
2023-05-10T19:05:11.877Z,2.50
2023-05-10T19:07:43.536Z,1.95
2023-05-10T19:10:13.926Z,2.28
2023-05-10T19:15:12.996Z,2.28
2023-05-10T19:20:13.237Z,2.30
2023-05-10T19:22:57.900Z,2.10
2023-05-10T19:28:00.476Z,2.25
2023-05-10T19:30:34.664Z,2.10
2023-05-10T19:33:04.595Z,2.42
2023-05-10T19:35:32.916Z,2.80
2023-05-10T19:38:01.221Z,2.35
2023-05-10T19:40:29.997Z,2.47
2023-05-10T19:42:58.352Z,2.45
2023-05-10T19:45:26.986Z,2.05
2023-05-10T19:47:56.712Z,2.58
2023-05-10T19:50:25.146Z,2.38
2023-05-10T19:52:53.497Z,2.15
2023-05-10T19:55:30.907Z,2.15
2023-05-10T19:58:00.690Z,2.55
2023-05-10T20:00:29.200Z,2.65
2023-05-10T20:02:59.220Z,2.30
2023-05-10T20:05:27.570Z,1.90
2023-05-10T20:07:55.860Z,2.05
2023-05-10T20:10:26.871Z,2.20
2023-05-10T20:12:55.305Z,2.38
2023-05-10T20:15:24.828Z,2.38
2023-05-10T20:17:53.917Z,2.33
2023-05-10T20:20:23.667Z,2.42
2023-05-10T20:22:51.682Z,2.22
2023-05-10T20:25:20.208Z,2.40
2023-05-10T20:27:50.783Z,2.40
2023-05-10T20:30:19.183Z,2.35
2023-05-10T20:32:47.240Z,2.20
2023-05-10T20:35:15.113Z,2.10
2023-05-10T20:37:44.436Z,2.40
2023-05-10T20:40:12.944Z,2.28
2023-05-10T20:42:40.864Z,2.25
2023-05-10T20:45:10.006Z,2.47
2023-05-10T20:47:37.931Z,2.30
2023-05-10T20:50:06.682Z,2.00
2023-05-10T20:52:34.683Z,2.03
2023-05-10T20:55:04.157Z,2.25
2023-05-10T20:57:32.057Z,2.60
2023-05-10T21:00:00.007Z,2.22
2023-05-10T21:02:28.131Z,2.13
2023-05-10T21:04:57.997Z,2.65
2023-05-10T21:07:26.287Z,2.42
2023-05-10T21:09:54.247Z,2.63
2023-05-10T21:12:24.137Z,2.95
2023-05-10T21:14:51.994Z,2.33
2023-05-10T21:17:20.303Z,2.40
2023-05-10T21:19:48.373Z,2.40
2023-05-10T21:22:16.485Z,2.35
2023-05-10T21:24:44.956Z,2.30
2023-05-10T21:27:13.083Z,2.60
2023-05-10T21:29:42.404Z,2.47
2023-05-10T21:32:10.623Z,2.40
2023-05-10T21:34:38.493Z,2.75
2023-05-10T21:37:06.469Z,2.50
2023-05-10T21:39:34.403Z,2.45
2023-05-10T21:42:03.516Z,2.38
2023-05-10T21:44:32.184Z,2.17
2023-05-10T21:47:01.958Z,2.60
2023-05-10T21:49:29.866Z,2.47
2023-05-10T21:51:57.820Z,2.38
2023-05-10T21:54:25.752Z,2.53
2023-05-10T21:56:53.673Z,2.65
2023-05-10T21:59:22.517Z,2.50
2023-05-10T22:01:50.501Z,2.55
2023-05-10T22:04:20.043Z,2.58
2023-05-10T22:06:49.052Z,2.93
2023-05-10T22:09:16.984Z,2.58
2023-05-10T22:11:44.866Z,2.30
2023-05-10T22:14:12.831Z,2.92
2023-05-10T22:16:40.740Z,3.67
2023-05-10T22:19:08.678Z,2.40
2023-05-10T22:21:38.064Z,3.20
2023-05-10T22:24:06.114Z,2.47
2023-05-10T22:26:34.138Z,2.60
2023-05-10T22:29:02.189Z,3.15
2023-05-10T22:31:30.294Z,2.70
2023-05-10T22:33:58.308Z,2.67
2023-05-10T22:36:26.431Z,2.85
2023-05-10T22:38:55.848Z,2.60
2023-05-10T22:41:23.975Z,2.50
2023-05-10T22:43:51.909Z,2.75
2023-05-10T22:46:19.821Z,3.08
2023-05-10T22:48:48.104Z,2.60
2023-05-10T22:51:16.178Z,3.50
2023-05-10T22:53:44.190Z,2.92
2023-05-10T22:56:13.900Z,3.28
2023-05-10T22:58:41.734Z,2.78
2023-05-10T23:01:09.581Z,3.00
2023-05-10T23:03:37.566Z,3.03
2023-05-10T23:06:06.184Z,3.00
2023-05-10T23:08:34.089Z,3.33
2023-05-10T23:11:02.088Z,2.97
2023-05-10T23:13:31.340Z,2.83
2023-05-10T23:15:59.267Z,3.20
2023-05-10T23:18:27.231Z,3.40
2023-05-10T23:20:55.160Z,2.83
2023-05-10T23:23:23.143Z,3.08
2023-05-10T23:25:51.471Z,2.90
2023-05-10T23:28:19.602Z,3.30
2023-05-10T23:30:48.958Z,3.20
2023-05-10T23:33:16.849Z,3.50
2023-05-10T23:35:44.849Z,3.05
2023-05-10T23:38:12.932Z,4.47
2023-05-10T23:40:40.943Z,3.20
2023-05-10T23:43:08.863Z,3.47
2023-05-10T23:45:36.774Z,2.97
2023-05-10T23:48:06.238Z,3.08
2023-05-10T23:50:34.277Z,3.70
2023-05-10T23:53:02.250Z,3.78
2023-05-10T23:55:30.125Z,4.03
2023-05-10T23:57:58.010Z,3.45
